TimeEST,TemperatureF,Dew PointF,Humidity,Sea Level PressureIn,VisibilityMPH,Wind Direction,Wind SpeedMPH,Gust SpeedMPH,PrecipitationIn,Events,Conditions,WindDirDegrees,DateUTC
12:13 AM,29.3,17.6,62,30.28,10.0,NNW,4.6,-,N/A,,Overcast,340,2012-11-27 05:13:00
12:34 AM,29.3,17.8,62,30.29,10.0,NNW,3.5,-,N/A,,Overcast,330,2012-11-27 05:34:00
12:54 AM,28.9,17.4,62,30.28,10.0,Calm,Calm,-,N/A,,Overcast,0,2012-11-27 05:54:00
1:13 AM,28.9,17.8,63,30.28,10.0,NNW,4.6,-,N/A,,Overcast,330,2012-11-27 06:13:00
1:34 AM,28.8,17.8,64,30.28,10.0,Calm,Calm,-,N/A,,Overcast,0,2012-11-27 06:34:00
1:53 AM,28.4,17.1,63,30.29,10.0,Calm,Calm,-,N/A,,Overcast,0,2012-11-27 06:53:00
2:13 AM,28.2,16.9,63,30.29,10.0,Calm,Calm,-,N/A,,Overcast,0,2012-11-27 07:13:00
2:34 AM,27.9,16.2,62,30.29,10.0,NW,3.5,-,N/A,,Overcast,310,2012-11-27 07:34:00
2:53 AM,27.9,16.0,61,30.29,10.0,NW,4.6,-,N/A,,Overcast,310,2012-11-27 07:53:00
3:14 AM,27.5,15.4,61,30.29,10.0,WNW,8.1,-,N/A,,Overcast,300,2012-11-27 08:14:00
3:33 AM,27.1,14.9,60,30.29,10.0,NNW,4.6,-,N/A,,Overcast,330,2012-11-27 08:33:00
3:53 AM,26.1,14.7,62,30.28,10.0,Calm,Calm,-,N/A,,Mostly Cloudy,0,2012-11-27 08:53:00
4:14 AM,25.2,14.4,64,30.28,10.0,Calm,Calm,-,N/A,,Clear,0,2012-11-27 09:14:00
4:53 AM,22.1,14.0,71,30.29,10.0,Calm,Calm,-,N/A,,Clear,0,2012-11-27 09:53:00
5:14 AM,21.2,14.4,75,30.29,10.0,Calm,Calm,-,N/A,,Clear,0,2012-11-27 10:14:00
5:33 AM,21.2,14.2,74,30.29,10.0,Calm,Calm,-,N/A,,Clear,0,2012-11-27 10:33:00
5:53 AM,20.8,14.5,77,30.30,10.0,Calm,Calm,-,N/A,,Clear,0,2012-11-27 10:53:00
6:14 AM,18.3,12.7,79,30.30,10.0,Calm,Calm,-,N/A,,Clear,0,2012-11-27 11:14:00
6:33 AM,19.6,14.5,81,30.30,10.0,Calm,Calm,-,N/A,,Clear,0,2012-11-27 11:33:00
6:53 AM,18.9,13.8,81,30.31,10.0,Calm,Calm,-,N/A,,Clear,0,2012-11-27 11:53:00
7:14 AM,19.6,14.4,80,30.31,10.0,Calm,Calm,-,N/A,,Clear,0,2012-11-27 12:14:00
7:33 AM,16.5,12.2,83,30.31,10.0,Calm,Calm,-,N/A,,Clear,0,2012-11-27 12:33:00
7:53 AM,17.6,13.5,84,30.32,10.0,Calm,Calm,-,N/A,,Clear,0,2012-11-27 12:53:00
8:14 AM,17.1,12.9,84,30.32,10.0,Calm,Calm,-,N/A,,Clear,0,2012-11-27 13:14:00
8:33 AM,19.8,15.1,82,30.32,10.0,Calm,Calm,-,N/A,,Clear,0,2012-11-27 13:33:00
8:54 AM,22.3,16.7,79,30.32,10.0,Calm,Calm,-,N/A,,Clear,0,2012-11-27 13:54:00
9:14 AM,24.8,16.9,72,30.32,10.0,Calm,Calm,-,N/A,,Clear,0,2012-11-27 14:14:00
9:33 AM,25.9,16.2,67,30.33,10.0,Calm,Calm,-,N/A,,Clear,0,2012-11-27 14:33:00
9:54 AM,27.7,16.0,62,30.33,10.0,Calm,Calm,-,N/A,,Clear,0,2012-11-27 14:54:00
10:13 AM,28.4,15.3,58,30.34,10.0,Calm,Calm,-,N/A,,Clear,0,2012-11-27 15:13:00
10:34 AM,29.8,14.2,52,30.35,10.0,Calm,Calm,-,N/A,,Clear,0,2012-11-27 15:34:00
10:53 AM,30.0,13.6,51,30.35,10.0,Calm,Calm,-,N/A,,Clear,0,2012-11-27 15:53:00
11:14 AM,30.2,13.6,50,30.35,10.0,SW,3.5,-,N/A,,Clear,220,2012-11-27 16:14:00
11:33 AM,31.5,14.2,49,30.35,10.0,WSW,3.5,-,N/A,,Clear,240,2012-11-27 16:33:00
11:53 AM,32.4,14.5,48,30.34,10.0,WSW,6.9,-,N/A,,Clear,250,2012-11-27 16:53:00
12:14 PM,32.5,14.0,46,30.33,10.0,WSW,3.5,-,N/A,,Clear,250,2012-11-27 17:14:00
12:33 PM,32.7,14.4,47,30.32,10.0,Calm,Calm,-,N/A,,Clear,0,2012-11-27 17:33:00
12:53 PM,33.4,14.7,46,30.32,10.0,WSW,9.2,-,N/A,,Clear,240,2012-11-27 17:53:00
1:14 PM,34.7,15.3,45,30.30,10.0,SW,6.9,-,N/A,,Clear,230,2012-11-27 18:14:00
1:33 PM,34.5,16.2,47,30.30,10.0,WSW,6.9,-,N/A,,Clear,240,2012-11-27 18:33:00
1:54 PM,35.2,16.0,45,30.29,10.0,West,4.6,16.1,N/A,,Clear,260,2012-11-27 18:54:00
2:14 PM,34.9,15.8,46,30.28,10.0,West,5.8,-,N/A,,Clear,260,2012-11-27 19:14:00
2:33 PM,35.2,15.6,45,30.27,10.0,WSW,5.8,-,N/A,,Clear,250,2012-11-27 19:33:00
2:54 PM,35.1,16.3,47,30.27,10.0,West,8.1,-,N/A,,Clear,260,2012-11-27 19:54:00
3:13 PM,35.4,16.3,46,30.26,10.0,West,5.8,-,N/A,,Clear,280,2012-11-27 20:13:00
3:33 PM,34.3,16.9,49,30.25,10.0,West,9.2,-,N/A,,Clear,270,2012-11-27 20:33:00
3:54 PM,33.8,17.1,50,30.25,10.0,West,8.1,-,N/A,,Clear,260,2012-11-27 20:54:00
4:13 PM,33.1,17.6,53,30.24,10.0,WSW,3.5,-,N/A,,Clear,250,2012-11-27 21:13:00
4:33 PM,32.7,17.6,54,30.24,10.0,WSW,5.8,-,N/A,,Clear,250,2012-11-27 21:33:00
4:54 PM,31.8,17.8,56,30.24,10.0,WSW,3.5,-,N/A,,Clear,250,2012-11-27 21:54:00
5:13 PM,29.8,17.4,60,30.24,10.0,WSW,4.6,-,N/A,,Clear,250,2012-11-27 22:13:00
5:34 PM,28.4,17.2,63,30.24,10.0,WSW,3.5,-,N/A,,Clear,250,2012-11-27 22:34:00
5:54 PM,28.2,17.4,64,30.25,10.0,Calm,Calm,-,N/A,,Clear,0,2012-11-27 22:54:00
6:13 PM,27.0,17.1,66,30.25,10.0,Calm,Calm,-,N/A,,Clear,0,2012-11-27 23:13:00
6:54 PM,26.2,17.2,69,30.26,10.0,Calm,Calm,-,N/A,,Clear,0,2012-11-27 23:54:00
7:13 PM,26.6,17.6,69,30.25,10.0,Calm,Calm,-,N/A,,Clear,0,2012-11-28 00:13:00
7:34 PM,24.3,16.7,73,30.24,10.0,Calm,Calm,-,N/A,,Clear,0,2012-11-28 00:34:00
7:53 PM,24.1,17.4,76,30.24,10.0,Calm,Calm,-,N/A,,Clear,0,2012-11-28 00:53:00
8:13 PM,24.1,17.4,76,30.24,10.0,Calm,Calm,-,N/A,,Clear,0,2012-11-28 01:13:00
8:34 PM,22.8,17.2,79,30.24,10.0,Calm,Calm,-,N/A,,Clear,0,2012-11-28 01:34:00
8:53 PM,23.0,18.1,82,30.24,10.0,Calm,Calm,-,N/A,,Clear,0,2012-11-28 01:53:00
9:14 PM,22.6,18.7,85,30.24,10.0,Calm,Calm,-,N/A,,Clear,0,2012-11-28 02:14:00
9:34 PM,22.1,18.0,84,30.24,10.0,Calm,Calm,-,N/A,,Clear,0,2012-11-28 02:34:00
9:53 PM,21.6,16.9,82,30.24,10.0,Calm,Calm,-,N/A,,Clear,0,2012-11-28 02:53:00
10:14 PM,22.5,17.1,80,30.24,10.0,Calm,Calm,-,N/A,,Clear,0,2012-11-28 03:14:00
10:34 PM,24.1,17.6,76,30.23,10.0,Calm,Calm,-,N/A,,Clear,0,2012-11-28 03:34:00
10:53 PM,25.2,18.0,74,30.22,10.0,South,3.5,-,N/A,,Clear,190,2012-11-28 03:53:00
11:14 PM,26.1,18.9,74,30.22,10.0,SSW,4.6,-,N/A,,Clear,210,2012-11-28 04:14:00
11:34 PM,25.7,18.7,75,30.22,10.0,SW,4.6,-,N/A,,Clear,220,2012-11-28 04:34:00
11:53 PM,26.2,18.5,73,30.22,10.0,SSW,3.5,-,N/A,,Scattered Clouds,210,2012-11-28 04:53:00